createdAt,value
2022-12-24T00:00:37.667Z,9.711607
2022-12-24T00:01:37.595Z,9.711654
2022-12-24T00:02:37.747Z,9.711640
2022-12-24T00:03:37.632Z,9.711603
2022-12-24T00:04:37.584Z,9.711520
2022-12-24T00:05:37.556Z,9.711533
2022-12-24T00:06:37.540Z,9.711493
2022-12-24T00:07:38.553Z,9.711544
2022-12-24T00:08:37.535Z,9.711484
2022-12-24T00:09:37.553Z,9.711456
2022-12-24T00:10:37.532Z,9.711525
2022-12-24T00:11:37.512Z,9.711512
2022-12-24T00:12:37.520Z,9.711608
2022-12-24T00:13:37.492Z,9.711645
2022-12-24T00:14:37.501Z,9.711685
2022-12-24T00:15:37.499Z,9.711630
2022-12-24T00:16:37.522Z,9.711540
2022-12-24T00:17:37.489Z,9.711595
2022-12-24T00:18:43.318Z,9.711610
2022-12-24T00:19:39.459Z,9.711487
2022-12-24T00:20:37.449Z,9.711633
2022-12-24T00:21:37.436Z,9.711570
2022-12-24T00:22:37.434Z,9.711625
2022-12-24T00:23:37.445Z,9.711577
2022-12-24T00:24:37.438Z,9.711545
2022-12-24T00:25:37.439Z,9.711708
2022-12-24T00:34:29.671Z,9.711613
2022-12-24T00:35:29.670Z,9.711293
2022-12-24T00:36:29.655Z,9.711589
2022-12-24T00:37:29.660Z,9.711210
2022-12-24T00:38:29.648Z,9.711374
2022-12-24T00:39:30.569Z,9.711568
2022-12-24T00:40:29.627Z,9.711469
2022-12-24T00:41:30.501Z,9.711281
2022-12-24T00:42:29.667Z,9.711493
2022-12-24T00:43:29.618Z,9.711522
2022-12-24T00:44:29.596Z,9.711519
2022-12-24T00:45:29.590Z,9.711483
2022-12-24T00:46:29.669Z,9.711408
2022-12-24T00:47:30.586Z,9.711543
2022-12-24T00:48:29.564Z,9.711659
2022-12-24T00:49:29.549Z,9.711328
2022-12-24T00:50:29.561Z,9.711452
2022-12-24T00:51:29.687Z,9.711483
2022-12-24T00:52:29.548Z,9.711517
2022-12-24T00:53:29.517Z,9.711489
2022-12-24T00:54:29.521Z,9.711515
2022-12-24T00:55:29.506Z,9.711430
2022-12-24T00:56:29.502Z,9.711432
2022-12-24T00:57:29.492Z,9.711386
2022-12-24T00:58:29.482Z,9.711514
2022-12-24T00:59:29.476Z,9.711523
2022-12-24T01:00:29.477Z,9.711493
2022-12-24T01:01:29.699Z,9.711535
2022-12-24T01:02:29.765Z,9.711581
2022-12-24T01:03:29.528Z,9.711572
2022-12-24T01:04:29.429Z,9.711503
2022-12-24T01:05:30.077Z,9.711519
2022-12-24T01:06:29.427Z,9.711461
2022-12-24T01:07:29.405Z,9.711692
2022-12-24T01:08:29.399Z,9.711735
2022-12-24T01:09:29.398Z,9.711562
2022-12-24T01:10:29.408Z,9.711464
2022-12-24T01:11:29.378Z,9.711485
2022-12-24T01:12:29.387Z,9.711553
2022-12-24T01:13:29.369Z,9.711559
2022-12-24T01:14:29.355Z,9.711607
2022-12-24T01:15:29.567Z,9.711650
2022-12-24T01:16:29.470Z,9.711619
2022-12-24T01:17:29.325Z,9.711605
2022-12-24T01:18:29.325Z,9.711578
2022-12-24T01:19:30.081Z,9.711626
2022-12-24T01:20:29.311Z,9.711644
2022-12-24T01:21:29.318Z,9.711483
2022-12-24T01:22:29.285Z,9.711570
2022-12-24T01:23:29.301Z,9.711602
2022-12-24T01:24:29.280Z,9.711560
2022-12-24T01:25:29.271Z,9.711625
2022-12-24T01:26:29.279Z,9.711635
2022-12-24T01:27:29.248Z,9.711680
2022-12-24T01:28:29.245Z,9.711687
2022-12-24T01:29:29.227Z,9.711796
2022-12-24T01:30:29.215Z,9.711861
2022-12-24T01:31:29.405Z,9.711736
2022-12-24T01:32:30.004Z,9.711653
2022-12-24T01:33:29.192Z,9.711646
2022-12-24T01:34:29.179Z,9.711682
2022-12-24T01:35:30.084Z,9.711755
2022-12-24T01:36:29.177Z,9.711965
2022-12-24T01:37:29.158Z,9.712131
2022-12-24T01:38:29.172Z,9.712090
2022-12-24T01:39:29.180Z,9.712213
2022-12-24T01:40:29.151Z,9.711981
2022-12-24T01:41:29.144Z,9.711745
2022-12-24T01:42:29.130Z,9.711900
2022-12-24T01:43:29.121Z,9.711925
2022-12-24T01:44:35.771Z,9.711963
2022-12-24T01:45:31.112Z,9.712004
2022-12-24T01:46:29.179Z,9.711814
2022-12-24T01:47:29.089Z,9.711795
2022-12-24T01:48:29.074Z,9.712127
2022-12-24T01:49:29.074Z,9.712034
2022-12-24T01:50:29.062Z,9.711987
2022-12-24T01:51:29.091Z,9.711749
2022-12-24T01:52:29.032Z,9.712077
2022-12-24T01:53:29.035Z,9.711946
2022-12-24T01:54:29.021Z,9.711366
2022-12-24T01:55:29.011Z,9.711350
2022-12-24T01:56:29.591Z,9.711824
2022-12-24T01:57:29.024Z,9.712068
2022-12-24T01:58:28.990Z,9.711884
2022-12-24T01:59:28.981Z,9.711845
2022-12-24T02:00:29.593Z,9.711715
2022-12-24T02:01:29.115Z,9.711746
2022-12-24T02:02:29.189Z,9.711600
2022-12-24T02:03:29.013Z,9.711588
2022-12-24T02:04:28.953Z,9.711905
2022-12-24T02:05:28.933Z,9.711860
2022-12-24T02:06:28.935Z,9.711673
2022-12-24T02:07:29.608Z,9.711600
2022-12-24T02:08:28.919Z,9.711767
2022-12-24T02:09:28.921Z,9.711932
2022-12-24T02:10:28.896Z,9.711726
2022-12-24T02:11:28.872Z,9.711523
2022-12-24T02:12:29.874Z,9.711735
2022-12-24T02:13:28.876Z,9.712212
2022-12-24T02:14:28.890Z,9.711689
2022-12-24T02:15:28.856Z,9.711857
2022-12-24T02:16:28.905Z,9.712100
2022-12-24T02:17:28.835Z,9.711561
2022-12-24T02:18:28.873Z,9.711792
2022-12-24T02:19:28.819Z,9.711713
2022-12-24T02:20:28.815Z,9.711555
2022-12-24T02:21:28.797Z,9.711337
2022-12-24T02:22:28.791Z,9.711134
2022-12-24T02:23:28.798Z,9.711642
2022-12-24T02:24:28.781Z,9.711587
2022-12-24T02:25:28.765Z,9.711502
2022-12-24T02:26:28.756Z,9.711476
2022-12-24T02:27:28.759Z,9.711286
2022-12-24T02:28:28.755Z,9.711626
2022-12-24T02:29:28.754Z,9.711585
2022-12-24T02:30:28.725Z,9.711333
2022-12-24T02:31:28.747Z,9.711565
2022-12-24T02:32:29.711Z,9.711553
2022-12-24T02:33:28.729Z,9.711581
2022-12-24T02:34:28.724Z,9.711534
2022-12-24T02:35:28.689Z,9.711586
2022-12-24T02:36:28.677Z,9.711612
2022-12-24T02:37:28.674Z,9.711609
2022-12-24T02:38:28.651Z,9.711642
2022-12-24T02:39:29.654Z,9.711601
2022-12-24T02:40:28.643Z,9.711573
2022-12-24T02:41:28.638Z,9.711602
2022-12-24T02:42:28.628Z,9.711556
2022-12-24T02:43:28.618Z,9.711557
2022-12-24T02:44:28.674Z,9.711496
2022-12-24T02:45:28.595Z,9.711667
2022-12-24T02:46:28.636Z,9.711706
2022-12-24T02:47:28.593Z,9.711677
2022-12-24T02:48:28.570Z,9.711612
2022-12-24T02:49:28.575Z,9.711538
2022-12-24T02:50:28.573Z,9.711658
2022-12-24T02:51:28.582Z,9.711636
2022-12-24T02:52:29.544Z,9.711618
2022-12-24T02:53:29.105Z,9.711613
2022-12-24T02:54:28.541Z,9.711652
2022-12-24T02:55:28.563Z,9.711668
2022-12-24T02:56:28.513Z,9.711636
2022-12-24T02:57:28.534Z,9.711535
2022-12-24T02:58:28.494Z,9.711548
2022-12-24T02:59:28.500Z,9.711720
2022-12-24T03:00:28.513Z,9.711587
2022-12-24T03:01:28.583Z,9.711694
2022-12-24T03:02:28.603Z,9.711596
2022-12-24T03:03:28.464Z,9.711716
2022-12-24T03:04:28.445Z,9.711746
2022-12-24T03:05:28.984Z,9.711716
2022-12-24T03:06:28.443Z,9.711648
2022-12-24T03:07:28.422Z,9.711646
2022-12-24T03:08:28.415Z,9.711740
2022-12-24T03:09:28.424Z,9.711730
2022-12-24T03:10:28.404Z,9.711706
2022-12-24T03:11:28.390Z,9.711755
2022-12-24T03:12:28.383Z,9.711539
2022-12-24T03:13:28.383Z,9.711578
2022-12-24T03:14:28.375Z,9.711649
2022-12-24T03:15:28.360Z,9.711598
2022-12-24T03:16:28.412Z,9.711596
2022-12-24T03:17:28.340Z,9.711689
2022-12-24T03:18:28.351Z,9.711883
2022-12-24T03:19:28.331Z,9.711739
2022-12-24T03:20:28.321Z,9.711706
2022-12-24T03:21:28.312Z,9.711514
2022-12-24T03:22:28.308Z,9.711635
2022-12-24T03:23:28.323Z,9.711549
2022-12-24T03:24:28.309Z,9.711702
2022-12-24T03:25:28.280Z,9.711665
2022-12-24T03:26:28.269Z,9.711645
2022-12-24T03:27:28.268Z,9.711650
2022-12-24T03:28:28.269Z,9.711675
2022-12-24T03:29:28.252Z,9.711722
2022-12-24T03:30:28.237Z,9.711692
2022-12-24T03:31:28.238Z,9.711628
2022-12-24T03:32:28.218Z,9.711769
2022-12-24T03:33:28.250Z,9.711788
2022-12-24T03:34:28.219Z,9.711517
2022-12-24T03:35:28.195Z,9.711677
2022-12-24T03:36:28.187Z,9.711682
2022-12-24T03:37:28.179Z,9.711777
2022-12-24T03:38:28.169Z,9.711759
2022-12-24T03:39:28.173Z,9.711756
2022-12-24T03:40:28.154Z,9.711577
2022-12-24T03:41:28.146Z,9.711645
2022-12-24T03:42:28.136Z,9.711600
2022-12-24T03:43:28.143Z,9.711618
2022-12-24T03:44:28.129Z,9.711720
2022-12-24T03:45:28.165Z,9.711621
2022-12-24T03:46:28.153Z,9.711654
2022-12-24T03:47:28.103Z,9.711649
2022-12-24T03:48:32.693Z,9.711740
2022-12-24T03:49:30.085Z,9.711696
2022-12-24T03:50:28.092Z,9.711441
2022-12-24T03:51:28.066Z,9.711679
2022-12-24T03:52:28.065Z,9.711604
2022-12-24T03:53:28.056Z,9.711573
2022-12-24T03:54:28.058Z,9.711650
2022-12-24T03:55:28.034Z,9.711613
2022-12-24T03:56:28.034Z,9.711692
2022-12-24T03:57:28.025Z,9.711835
2022-12-24T03:58:28.019Z,9.711765
2022-12-24T03:59:28.011Z,9.711685
2022-12-24T04:00:27.992Z,9.711646
2022-12-24T04:01:28.047Z,9.711679
2022-12-24T04:02:28.106Z,9.711972
2022-12-24T04:03:28.054Z,9.712269
2022-12-24T04:04:28.546Z,9.712587
2022-12-24T04:05:27.970Z,9.712232
2022-12-24T04:06:27.950Z,9.712042
2022-12-24T04:07:27.941Z,9.712008
2022-12-24T04:08:27.928Z,9.711722
2022-12-24T04:09:27.916Z,9.711734
2022-12-24T04:10:27.915Z,9.711513
2022-12-24T04:11:27.908Z,9.711541
2022-12-24T04:12:27.889Z,9.711650
2022-12-24T04:13:27.888Z,9.711700
2022-12-24T04:14:27.872Z,9.711605
2022-12-24T04:15:28.550Z,9.711479
2022-12-24T04:16:27.875Z,9.711740
2022-12-24T04:17:27.867Z,9.711864
2022-12-24T04:18:27.892Z,9.711796
2022-12-24T04:19:27.857Z,9.711830
2022-12-24T04:20:27.816Z,9.712048
2022-12-24T04:21:28.826Z,9.711837
2022-12-24T04:22:27.819Z,9.711982
2022-12-24T04:23:27.797Z,9.711941
2022-12-24T04:24:27.796Z,9.711886
2022-12-24T04:25:27.793Z,9.711974
2022-12-24T04:26:28.545Z,9.711913
2022-12-24T04:27:30.616Z,9.711765
2022-12-24T04:28:28.771Z,9.711686
2022-12-24T04:29:27.767Z,9.711772
2022-12-24T04:30:27.742Z,9.711814
2022-12-24T04:31:28.616Z,9.711964
2022-12-24T04:32:27.728Z,9.711863
2022-12-24T04:33:27.729Z,9.711662
2022-12-24T04:34:27.720Z,9.711666
2022-12-24T04:35:27.703Z,9.711779
2022-12-24T04:36:27.694Z,9.711780
2022-12-24T04:37:27.686Z,9.711820
2022-12-24T04:38:27.682Z,9.712050
2022-12-24T04:39:27.670Z,9.711878
2022-12-24T04:40:28.553Z,9.711952
2022-12-24T04:41:27.664Z,9.712105
2022-12-24T04:42:27.642Z,9.711532
2022-12-24T04:43:27.653Z,9.711552
2022-12-24T04:44:27.639Z,9.711800
2022-12-24T04:45:27.673Z,9.711748
2022-12-24T04:46:27.718Z,9.711870
2022-12-24T04:47:27.615Z,9.712038
2022-12-24T04:48:27.606Z,9.712031
2022-12-24T04:49:27.591Z,9.711883
2022-12-24T04:50:27.579Z,9.711408
2022-12-24T04:51:27.577Z,9.711382
2022-12-24T04:52:27.558Z,9.711819
2022-12-24T04:53:27.621Z,9.712243
2022-12-24T04:54:27.661Z,9.711955
2022-12-24T04:55:27.545Z,9.712297
2022-12-24T04:56:27.528Z,9.712337
2022-12-24T04:57:27.522Z,9.712634
2022-12-24T04:58:27.525Z,9.712608
2022-12-24T04:59:27.511Z,9.712631
2022-12-24T05:00:27.496Z,9.712568
2022-12-24T05:01:27.578Z,9.712463
2022-12-24T05:02:27.723Z,9.712446
2022-12-24T05:03:27.565Z,9.712175
2022-12-24T05:04:27.476Z,9.711982
2022-12-24T05:05:27.463Z,9.711872
2022-12-24T05:06:27.441Z,9.711705
2022-12-24T05:07:27.439Z,9.711575
2022-12-24T05:08:27.433Z,9.711711
2022-12-24T05:09:27.438Z,9.711518
2022-12-24T05:10:27.426Z,9.711656
2022-12-24T05:11:27.447Z,9.711595
2022-12-24T05:12:27.400Z,9.711601
2022-12-24T05:13:34.380Z,9.711383
2022-12-24T05:14:29.393Z,9.711614
2022-12-24T05:15:27.372Z,9.711595
2022-12-24T05:16:27.425Z,9.711521
2022-12-24T05:17:27.377Z,9.711422
2022-12-24T05:18:27.365Z,9.711604
2022-12-24T05:19:27.355Z,9.711639
2022-12-24T05:20:27.335Z,9.711602
2022-12-24T05:21:27.330Z,9.711809
2022-12-24T05:22:27.315Z,9.711809
2022-12-24T05:23:27.320Z,9.711660
2022-12-24T05:24:27.334Z,9.711560
2022-12-24T05:25:27.302Z,9.711659
2022-12-24T05:26:27.286Z,9.711568
2022-12-24T05:27:27.299Z,9.711380
2022-12-24T05:28:27.297Z,9.711564
2022-12-24T05:29:27.263Z,9.711572
2022-12-24T05:30:27.306Z,9.711888
2022-12-24T05:31:27.239Z,9.711795
2022-12-24T05:32:27.230Z,9.711881
2022-12-24T05:33:27.258Z,9.711732
2022-12-24T05:34:27.212Z,9.711969
2022-12-24T05:35:27.207Z,9.711836
2022-12-24T05:36:28.199Z,9.711848
2022-12-24T05:37:27.204Z,9.711841
2022-12-24T05:38:27.213Z,9.711786
2022-12-24T05:39:27.190Z,9.711926
2022-12-24T05:40:27.190Z,9.712105
2022-12-24T05:41:27.198Z,9.712164
2022-12-24T05:42:27.150Z,9.712042
2022-12-24T05:43:28.161Z,9.712194
2022-12-24T05:44:27.139Z,9.712160
2022-12-24T05:45:27.159Z,9.711973
2022-12-24T05:46:27.174Z,9.712074
2022-12-24T05:47:27.123Z,9.711996
2022-12-24T05:48:27.125Z,9.711833
2022-12-24T05:49:27.112Z,9.712005
2022-12-24T05:50:27.091Z,9.711908
2022-12-24T05:51:27.097Z,9.711808
2022-12-24T05:52:27.095Z,9.711782
2022-12-24T05:53:27.073Z,9.711957
2022-12-24T05:54:27.065Z,9.712109
2022-12-24T05:55:27.110Z,9.712050
2022-12-24T05:56:27.043Z,9.711987
2022-12-24T05:57:27.050Z,9.712034
2022-12-24T05:58:27.039Z,9.711946
2022-12-24T05:59:27.039Z,9.711955
2022-12-24T06:00:27.009Z,9.712020
2022-12-24T06:01:27.057Z,9.711886
2022-12-24T06:02:27.055Z,9.711840
2022-12-24T06:03:26.996Z,9.711886
2022-12-24T06:04:29.146Z,9.711794
2022-12-24T06:05:28.574Z,9.711944
2022-12-24T06:06:26.993Z,9.712113
2022-12-24T06:07:26.975Z,9.712341
2022-12-24T06:08:26.947Z,9.712369
2022-12-24T06:09:26.945Z,9.712356
2022-12-24T06:10:26.945Z,9.712431
2022-12-24T06:11:26.923Z,9.712723
2022-12-24T06:12:26.921Z,9.712448
2022-12-24T06:13:26.915Z,9.712084
2022-12-24T06:14:26.907Z,9.712326
2022-12-24T06:15:26.893Z,9.712317
2022-12-24T06:16:27.755Z,9.712371
2022-12-24T06:17:26.876Z,9.712423
2022-12-24T06:18:26.886Z,9.712210
2022-12-24T06:19:26.867Z,9.712281
2022-12-24T06:20:26.849Z,9.712192
2022-12-24T06:21:26.844Z,9.712037
2022-12-24T06:22:26.836Z,9.712006
2022-12-24T06:23:28.682Z,9.711958
2022-12-24T06:24:26.831Z,9.712090
2022-12-24T06:25:26.809Z,9.712022
2022-12-24T06:26:26.800Z,9.711815
2022-12-24T06:27:26.804Z,9.711875
2022-12-24T06:28:28.808Z,9.711832
2022-12-24T06:29:27.561Z,9.711864
2022-12-24T06:30:27.782Z,9.712018
2022-12-24T06:31:26.840Z,9.711909
2022-12-24T06:32:26.759Z,9.711716
2022-12-24T06:33:26.754Z,9.711642
2022-12-24T06:34:27.654Z,9.711590
2022-12-24T06:35:26.733Z,9.711675
2022-12-24T06:36:26.746Z,9.711790
2022-12-24T06:37:27.654Z,9.711784
2022-12-24T06:38:26.720Z,9.711826
2022-12-24T06:39:26.710Z,9.711896
2022-12-24T06:40:26.692Z,9.712052
2022-12-24T06:41:26.697Z,9.712047
2022-12-24T06:42:26.679Z,9.712106
2022-12-24T06:43:26.753Z,9.711943
2022-12-24T06:44:26.671Z,9.711909
2022-12-24T06:45:26.683Z,9.711895
2022-12-24T06:46:26.763Z,9.711902
2022-12-24T06:47:26.637Z,9.711926
2022-12-24T06:48:26.630Z,9.712232
2022-12-24T06:49:26.753Z,9.712355
2022-12-24T06:50:26.618Z,9.712360
2022-12-24T06:51:26.622Z,9.712342
2022-12-24T06:52:26.606Z,9.712192
2022-12-24T06:53:26.596Z,9.712498
2022-12-24T06:54:26.585Z,9.712003
2022-12-24T06:55:26.600Z,9.711629
2022-12-24T06:56:26.586Z,9.711598
2022-12-24T06:57:26.570Z,9.711431
2022-12-24T06:58:26.556Z,9.711619
2022-12-24T06:59:26.585Z,9.711566
2022-12-24T07:00:26.680Z,9.711794
2022-12-24T07:01:26.680Z,9.711805
2022-12-24T07:02:28.240Z,9.711923
2022-12-24T07:03:26.563Z,9.711906
2022-12-24T07:04:26.601Z,9.711675
2022-12-24T07:05:26.519Z,9.711701
2022-12-24T07:06:26.531Z,9.711681
2022-12-24T07:07:26.480Z,9.711508
2022-12-24T07:08:26.478Z,9.711641
2022-12-24T07:09:26.484Z,9.711773
2022-12-24T07:10:26.459Z,9.711883
2022-12-24T07:11:26.469Z,9.711610
2022-12-24T07:12:26.473Z,9.711529
2022-12-24T07:13:26.439Z,9.711447
2022-12-24T07:14:26.424Z,9.711396
2022-12-24T07:15:26.419Z,9.711370
2022-12-24T07:16:26.577Z,9.711316
2022-12-24T07:17:26.624Z,9.711547
2022-12-24T07:18:27.114Z,9.711554
2022-12-24T07:19:27.092Z,9.711682
2022-12-24T07:20:26.382Z,9.711542
2022-12-24T07:21:26.373Z,9.711468
2022-12-24T07:22:26.371Z,9.711329
2022-12-24T07:23:26.356Z,9.711365
2022-12-24T07:24:26.368Z,9.711453
2022-12-24T07:25:26.362Z,9.711566
2022-12-24T07:26:26.315Z,9.711409
2022-12-24T07:27:26.326Z,9.711558
2022-12-24T07:28:28.184Z,9.711793
2022-12-24T07:29:27.307Z,9.712750
2022-12-24T07:30:26.298Z,9.713339
2022-12-24T07:31:26.764Z,9.713470
2022-12-24T07:32:26.282Z,9.713003
2022-12-24T07:33:26.319Z,9.712640
2022-12-24T07:34:26.267Z,9.712891
2022-12-24T07:35:26.252Z,9.712746
2022-12-24T07:36:26.250Z,9.712969
2022-12-24T07:37:26.237Z,9.712705
2022-12-24T07:38:26.225Z,9.712461
2022-12-24T07:39:26.226Z,9.712214
2022-12-24T07:40:26.225Z,9.712277
2022-12-24T07:41:26.208Z,9.712388
2022-12-24T07:42:26.199Z,9.712453
2022-12-24T07:43:26.222Z,9.712440
2022-12-24T07:44:26.186Z,9.712375
2022-12-24T07:45:26.178Z,9.712438
2022-12-24T07:46:27.148Z,9.712358
2022-12-24T07:47:26.173Z,9.712190
2022-12-24T07:48:27.146Z,9.712242
2022-12-24T07:49:26.674Z,9.712151
2022-12-24T07:50:26.127Z,9.712196
2022-12-24T07:51:26.125Z,9.712034
2022-12-24T07:52:26.117Z,9.712244
2022-12-24T07:53:26.113Z,9.712180
2022-12-24T07:54:26.097Z,9.711954
2022-12-24T07:55:26.084Z,9.711641
2022-12-24T07:56:26.097Z,9.711604
2022-12-24T07:57:26.612Z,9.711658
2022-12-24T07:58:26.069Z,9.711614
2022-12-24T07:59:26.052Z,9.711777
2022-12-24T08:00:26.086Z,9.711692
2022-12-24T08:01:26.182Z,9.711617
2022-12-24T08:02:26.267Z,9.711596
2022-12-24T08:03:26.241Z,9.711588
2022-12-24T08:04:26.009Z,9.711481
2022-12-24T08:05:26.025Z,9.711610
2022-12-24T08:06:26.000Z,9.711545
2022-12-24T08:07:25.990Z,9.711389
2022-12-24T08:08:26.000Z,9.711429
2022-12-24T08:09:25.990Z,9.711477
2022-12-24T08:10:26.016Z,9.711550
2022-12-24T08:11:25.954Z,9.711621
2022-12-24T08:12:26.004Z,9.711605
2022-12-24T08:13:25.944Z,9.711593
2022-12-24T08:14:25.958Z,9.711575
2022-12-24T08:15:25.929Z,9.711603
2022-12-24T08:16:25.958Z,9.711680
2022-12-24T08:17:31.979Z,9.711647
2022-12-24T08:18:28.215Z,9.711629
2022-12-24T08:19:26.892Z,9.711518
2022-12-24T08:20:25.912Z,9.711686
2022-12-24T08:21:25.878Z,9.711741
2022-12-24T08:22:26.681Z,9.711773
2022-12-24T08:23:25.863Z,9.711636
2022-12-24T08:24:25.863Z,9.711635
2022-12-24T08:25:25.871Z,9.711667
2022-12-24T08:26:26.637Z,9.711658
2022-12-24T08:27:25.824Z,9.711714
2022-12-24T08:28:25.827Z,9.711726
2022-12-24T08:29:25.803Z,9.711808
2022-12-24T08:30:25.865Z,9.711607
2022-12-24T08:31:25.826Z,9.711718
2022-12-24T08:32:25.804Z,9.711621
2022-12-24T08:33:25.782Z,9.711695
2022-12-24T08:34:25.768Z,9.711702
2022-12-24T08:35:25.763Z,9.711728
2022-12-24T08:36:25.743Z,9.711770
2022-12-24T08:37:25.742Z,9.711888
2022-12-24T08:38:25.736Z,9.712107
2022-12-24T08:39:25.723Z,9.711992
2022-12-24T08:40:25.868Z,9.711775
2022-12-24T08:41:25.710Z,9.711675
2022-12-24T08:42:25.754Z,9.711866
2022-12-24T08:43:25.707Z,9.711703
2022-12-24T08:44:25.682Z,9.711904
2022-12-24T08:45:25.695Z,9.711718
2022-12-24T08:46:26.766Z,9.711671
2022-12-24T08:47:25.653Z,9.711586
2022-12-24T08:48:25.696Z,9.711637
2022-12-24T08:49:28.115Z,9.711676
2022-12-24T08:50:25.634Z,9.711689
2022-12-24T08:51:28.606Z,9.711675
2022-12-24T08:52:30.144Z,9.711622
2022-12-24T08:53:25.615Z,9.711670
2022-12-24T08:54:25.607Z,9.711715
2022-12-24T08:55:25.598Z,9.711679
2022-12-24T08:56:25.620Z,9.711935
2022-12-24T08:57:25.601Z,9.711990
2022-12-24T08:58:26.092Z,9.711802
2022-12-24T08:59:28.200Z,9.711811
2022-12-24T09:00:26.548Z,9.711837
2022-12-24T09:01:27.280Z,9.711914
2022-12-24T09:02:28.324Z,9.711906
2022-12-24T09:03:28.030Z,9.712161
2022-12-24T09:04:26.556Z,9.712285
2022-12-24T09:05:28.107Z,9.712194
2022-12-24T09:06:25.524Z,9.712086
2022-12-24T09:07:25.507Z,9.712194
2022-12-24T09:08:25.535Z,9.712254
2022-12-24T09:09:25.486Z,9.711952
2022-12-24T09:10:25.478Z,9.711875
2022-12-24T09:11:26.172Z,9.711847
2022-12-24T09:12:25.455Z,9.711842
2022-12-24T09:13:25.456Z,9.711736
2022-12-24T09:14:25.438Z,9.711838
2022-12-24T09:15:26.126Z,9.711626
2022-12-24T09:16:25.503Z,9.711784
2022-12-24T09:17:25.429Z,9.711817
2022-12-24T09:18:25.493Z,9.711968
2022-12-24T09:19:26.141Z,9.711954
2022-12-24T09:20:27.191Z,9.711755
2022-12-24T09:21:37.633Z,9.712150
2022-12-24T09:22:25.378Z,9.711901
2022-12-24T09:23:25.580Z,9.711732
2022-12-24T09:24:27.363Z,9.711643
2022-12-24T09:31:14.846Z,9.712369
2022-12-24T09:32:14.903Z,9.711968
2022-12-24T09:33:14.776Z,9.712028
2022-12-24T09:34:15.178Z,9.712028
2022-12-24T09:35:14.778Z,9.712028
2022-12-24T09:36:14.757Z,9.710810
2022-12-24T09:37:14.732Z,9.711826
2022-12-24T09:38:14.741Z,9.711717
2022-12-24T09:39:14.728Z,9.711650
2022-12-24T09:40:14.708Z,9.711642
2022-12-24T09:41:15.556Z,9.711676
2022-12-24T09:42:14.688Z,9.711709
2022-12-24T09:43:14.695Z,9.711718
2022-12-24T09:44:14.700Z,9.711671
2022-12-24T09:45:15.671Z,9.711672
2022-12-24T09:46:15.687Z,9.711650
2022-12-24T09:47:14.651Z,9.711559
2022-12-24T09:48:14.641Z,9.711613
2022-12-24T09:49:14.641Z,9.711679
2022-12-24T09:50:14.629Z,9.711684
2022-12-24T09:51:14.633Z,9.711649
2022-12-24T09:52:14.616Z,9.711658
2022-12-24T09:53:15.170Z,9.711660
2022-12-24T09:54:15.100Z,9.711681
2022-12-24T09:55:14.592Z,9.711803
2022-12-24T09:56:14.579Z,9.711732
2022-12-24T09:57:14.604Z,9.711673
2022-12-24T09:58:14.577Z,9.711741
2022-12-24T09:59:18.174Z,9.711683
2022-12-24T10:00:16.214Z,9.711679
2022-12-24T10:01:15.326Z,9.711660
2022-12-24T10:02:18.303Z,9.711635
2022-12-24T10:03:14.591Z,9.711650
2022-12-24T10:04:19.444Z,9.711686
2022-12-24T10:05:18.319Z,9.711717
2022-12-24T10:06:14.505Z,9.711693
2022-12-24T10:07:14.589Z,9.711708
2022-12-24T10:08:20.211Z,9.711706
2022-12-24T10:09:17.196Z,9.711784
2022-12-24T10:10:14.481Z,9.711803
2022-12-24T10:11:14.467Z,9.711787
2022-12-24T10:12:14.464Z,9.711736
2022-12-24T10:13:14.469Z,9.711813
2022-12-24T10:14:14.456Z,9.711720
2022-12-24T10:15:14.433Z,9.711884
2022-12-24T10:16:14.547Z,9.711914
2022-12-24T10:17:14.509Z,9.711943
2022-12-24T10:18:14.419Z,9.711751
2022-12-24T10:19:14.408Z,9.711748
2022-12-24T10:20:14.403Z,9.711621
2022-12-24T10:21:14.387Z,9.711526
2022-12-24T10:22:15.387Z,9.711861
2022-12-24T10:23:14.398Z,9.711663
2022-12-24T10:24:14.354Z,9.711739
2022-12-24T10:25:14.355Z,9.712036
2022-12-24T10:26:14.341Z,9.712226
2022-12-24T10:27:14.362Z,9.711787
2022-12-24T10:28:14.382Z,9.711838
2022-12-24T10:29:15.110Z,9.712097
2022-12-24T10:30:17.139Z,9.712061
2022-12-24T10:31:15.352Z,9.712009
2022-12-24T10:32:14.291Z,9.711865
2022-12-24T10:33:14.292Z,9.711670
2022-12-24T10:34:14.345Z,9.712020
2022-12-24T10:35:14.279Z,9.711962
2022-12-24T10:36:14.271Z,9.711555
2022-12-24T10:37:14.272Z,9.712071
2022-12-24T10:38:14.239Z,9.712138
2022-12-24T10:39:14.251Z,9.711986
2022-12-24T10:40:14.226Z,9.711925
2022-12-24T10:41:14.226Z,9.711806
2022-12-24T10:42:14.218Z,9.711825
2022-12-24T10:43:14.203Z,9.711872
2022-12-24T10:44:14.208Z,9.711912
2022-12-24T10:45:14.192Z,9.711848
2022-12-24T10:46:14.304Z,9.711763
2022-12-24T10:47:14.181Z,9.711782
2022-12-24T10:48:14.174Z,9.711806
2022-12-24T10:49:14.168Z,9.711801
2022-12-24T10:50:14.146Z,9.711774
2022-12-24T10:51:15.117Z,9.711772
2022-12-24T10:52:14.145Z,9.711768
2022-12-24T10:53:14.121Z,9.711800
2022-12-24T10:54:14.111Z,9.711899
2022-12-24T10:55:16.715Z,9.712024
2022-12-24T21:28:40.030Z,9.711605
2022-12-24T21:29:38.237Z,9.711581
2022-12-24T21:30:38.286Z,9.711498
2022-12-24T21:31:39.530Z,9.711563
2022-12-24T21:32:38.252Z,9.711484
2022-12-24T21:33:38.708Z,9.711596
2022-12-24T21:34:40.038Z,9.711569
2022-12-24T21:35:38.192Z,9.711583
2022-12-24T21:36:38.196Z,9.711602
2022-12-24T21:37:38.192Z,9.711679
2022-12-24T21:38:38.174Z,9.711600
2022-12-24T21:39:38.193Z,9.711520
2022-12-24T21:40:38.151Z,9.711508
2022-12-24T21:41:38.143Z,9.711599
2022-12-24T21:42:39.042Z,9.711558
2022-12-24T21:43:38.144Z,9.711588
2022-12-24T21:44:38.124Z,9.711524
2022-12-24T21:45:38.170Z,9.711524
2022-12-24T21:46:38.152Z,9.711566
2022-12-24T21:47:38.128Z,9.711617
2022-12-24T21:48:38.090Z,9.711568
2022-12-24T21:49:38.076Z,9.711592
2022-12-24T21:50:39.027Z,9.711579
2022-12-24T21:51:38.088Z,9.711649
2022-12-24T21:52:38.072Z,9.711653
2022-12-24T21:53:38.046Z,9.711590
2022-12-24T21:54:38.038Z,9.711594
2022-12-24T21:55:38.029Z,9.711613
2022-12-24T21:56:38.078Z,9.711646
2022-12-24T21:57:38.050Z,9.711703
2022-12-24T21:58:38.052Z,9.711693
2022-12-24T21:59:38.007Z,9.711755
2022-12-24T22:03:49.045Z,9.711510
2022-12-24T22:04:50.948Z,9.711514
2022-12-24T22:05:50.312Z,9.711343
2022-12-24T22:06:48.375Z,9.711354
2022-12-24T22:07:48.263Z,9.711703
2022-12-24T22:08:48.251Z,9.711713
2022-12-24T22:09:48.247Z,9.711789
2022-12-24T22:10:48.235Z,9.711637
2022-12-24T22:11:53.981Z,9.711809
2022-12-24T22:12:50.221Z,9.711755
2022-12-24T22:13:48.239Z,9.711570
2022-12-24T22:14:48.205Z,9.711808
2022-12-24T22:15:48.860Z,9.711802
2022-12-24T22:16:48.318Z,9.711516
2022-12-24T22:17:48.179Z,9.711851
2022-12-24T22:18:48.174Z,9.711953
2022-12-24T22:19:48.188Z,9.711883
2022-12-24T22:20:48.182Z,9.712302
2022-12-24T22:21:48.954Z,9.711523
2022-12-24T22:22:49.891Z,9.711703
2022-12-24T22:23:48.138Z,9.711713
2022-12-24T22:24:48.133Z,9.711703
2022-12-24T22:25:48.155Z,9.711797
2022-12-24T22:26:48.116Z,9.711557
2022-12-24T22:27:48.109Z,9.711322
2022-12-24T22:28:48.104Z,9.711348
2022-12-24T22:29:48.873Z,9.711480
2022-12-24T22:30:48.128Z,9.711591
2022-12-24T22:31:48.954Z,9.711271
2022-12-24T22:32:49.079Z,9.711041
2022-12-24T22:33:48.059Z,9.711063